sensor_id;sensor_type;location;lat;lon;timestamp;P1;durP1;ratioP1;P2;durP2;ratioP2
5297;SDS011;14738;42.668;23.250;2024-02-26T00:00:22;22.73;;;14.17;;
5297;SDS011;14738;42.668;23.250;2024-02-26T00:02:50;16.87;;;13.40;;
5297;SDS011;14738;42.668;23.250;2024-02-26T00:05:16;19.60;;;15.87;;
5297;SDS011;14738;42.668;23.250;2024-02-26T00:07:42;21.63;;;14.87;;
5297;SDS011;14738;42.668;23.250;2024-02-26T00:10:08;18.80;;;13.90;;
5297;SDS011;14738;42.668;23.250;2024-02-26T00:12:39;18.83;;;13.60;;
5297;SDS011;14738;42.668;23.250;2024-02-26T00:15:09;18.80;;;13.50;;
5297;SDS011;14738;42.668;23.250;2024-02-26T00:17:38;17.70;;;13.17;;
5297;SDS011;14738;42.668;23.250;2024-02-26T00:20:04;23.20;;;14.50;;
5297;SDS011;14738;42.668;23.250;2024-02-26T00:22:33;19.63;;;13.33;;
5297;SDS011;14738;42.668;23.250;2024-02-26T00:25:08;16.10;;;11.80;;
5297;SDS011;14738;42.668;23.250;2024-02-26T00:27:39;19.00;;;13.33;;
5297;SDS011;14738;42.668;23.250;2024-02-26T00:30:09;12.90;;;11.10;;
5297;SDS011;14738;42.668;23.250;2024-02-26T00:32:35;15.67;;;13.13;;
5297;SDS011;14738;42.668;23.250;2024-02-26T00:35:01;22.43;;;14.63;;
5297;SDS011;14738;42.668;23.250;2024-02-26T00:37:29;20.17;;;14.57;;
5297;SDS011;14738;42.668;23.250;2024-02-26T00:39:57;19.00;;;14.20;;
5297;SDS011;14738;42.668;23.250;2024-02-26T00:42:31;20.70;;;15.33;;
5297;SDS011;14738;42.668;23.250;2024-02-26T00:44:59;22.00;;;15.57;;
5297;SDS011;14738;42.668;23.250;2024-02-26T00:47:25;24.97;;;16.60;;
5297;SDS011;14738;42.668;23.250;2024-02-26T00:49:56;23.20;;;16.40;;
5297;SDS011;14738;42.668;23.250;2024-02-26T00:52:22;27.43;;;18.70;;
5297;SDS011;14738;42.668;23.250;2024-02-26T00:54:50;22.63;;;17.20;;
5297;SDS011;14738;42.668;23.250;2024-02-26T00:57:15;26.80;;;16.40;;
5297;SDS011;14738;42.668;23.250;2024-02-26T00:59:44;21.07;;;16.30;;
5297;SDS011;14738;42.668;23.250;2024-02-26T01:02:17;25.37;;;17.70;;
5297;SDS011;14738;42.668;23.250;2024-02-26T01:04:44;24.00;;;16.97;;
5297;SDS011;14738;42.668;23.250;2024-02-26T01:07:10;23.00;;;16.10;;
5297;SDS011;14738;42.668;23.250;2024-02-26T01:09:38;21.80;;;16.07;;
5297;SDS011;14738;42.668;23.250;2024-02-26T01:12:08;24.13;;;16.27;;
5297;SDS011;14738;42.668;23.250;2024-02-26T01:14:34;27.50;;;17.17;;
5297;SDS011;14738;42.668;23.250;2024-02-26T01:17:02;20.67;;;15.27;;
5297;SDS011;14738;42.668;23.250;2024-02-26T01:19:28;23.07;;;17.10;;
5297;SDS011;14738;42.668;23.250;2024-02-26T01:21:56;22.60;;;15.87;;
5297;SDS011;14738;42.668;23.250;2024-02-26T01:24:22;21.77;;;16.30;;
5297;SDS011;14738;42.668;23.250;2024-02-26T01:26:47;19.63;;;15.67;;
5297;SDS011;14738;42.668;23.250;2024-02-26T01:29:13;22.47;;;17.10;;
5297;SDS011;14738;42.668;23.250;2024-02-26T01:31:57;18.90;;;15.47;;
5297;SDS011;14738;42.668;23.250;2024-02-26T01:34:25;21.63;;;16.30;;
5297;SDS011;14738;42.668;23.250;2024-02-26T01:36:53;25.73;;;16.07;;
5297;SDS011;14738;42.668;23.250;2024-02-26T01:39:27;19.47;;;14.33;;
5297;SDS011;14738;42.668;23.250;2024-02-26T01:41:55;20.93;;;15.33;;
5297;SDS011;14738;42.668;23.250;2024-02-26T01:44:23;17.93;;;14.33;;
5297;SDS011;14738;42.668;23.250;2024-02-26T01:46:48;20.53;;;14.97;;
5297;SDS011;14738;42.668;23.250;2024-02-26T01:49:17;17.77;;;14.80;;
5297;SDS011;14738;42.668;23.250;2024-02-26T01:51:42;22.33;;;14.70;;
5297;SDS011;14738;42.668;23.250;2024-02-26T01:54:11;19.00;;;14.70;;
5297;SDS011;14738;42.668;23.250;2024-02-26T01:56:37;16.17;;;13.47;;
5297;SDS011;14738;42.668;23.250;2024-02-26T01:59:05;18.07;;;14.53;;
5297;SDS011;14738;42.668;23.250;2024-02-26T02:01:33;17.83;;;14.13;;
5297;SDS011;14738;42.668;23.250;2024-02-26T02:04:06;20.03;;;15.47;;
5297;SDS011;14738;42.668;23.250;2024-02-26T02:06:31;21.00;;;14.20;;
5297;SDS011;14738;42.668;23.250;2024-02-26T02:09:03;18.40;;;14.67;;
5297;SDS011;14738;42.668;23.250;2024-02-26T02:11:35;20.93;;;16.00;;
5297;SDS011;14738;42.668;23.250;2024-02-26T02:14:01;21.77;;;17.50;;
5297;SDS011;14738;42.668;23.250;2024-02-26T02:16:26;22.10;;;16.20;;
5297;SDS011;14738;42.668;23.250;2024-02-26T02:18:55;22.47;;;17.13;;
5297;SDS011;14738;42.668;23.250;2024-02-26T02:21:32;23.00;;;17.23;;
5297;SDS011;14738;42.668;23.250;2024-02-26T02:23:58;24.00;;;16.57;;
5297;SDS011;14738;42.668;23.250;2024-02-26T02:26:31;27.30;;;16.77;;
5297;SDS011;14738;42.668;23.250;2024-02-26T02:28:57;22.50;;;17.93;;
5297;SDS011;14738;42.668;23.250;2024-02-26T02:31:24;20.83;;;16.33;;
5297;SDS011;14738;42.668;23.250;2024-02-26T02:33:52;20.77;;;16.00;;
5297;SDS011;14738;42.668;23.250;2024-02-26T02:36:18;21.10;;;16.77;;
5297;SDS011;14738;42.668;23.250;2024-02-26T02:38:50;20.30;;;15.93;;
5297;SDS011;14738;42.668;23.250;2024-02-26T02:41:16;19.43;;;16.33;;
5297;SDS011;14738;42.668;23.250;2024-02-26T02:43:48;19.50;;;15.80;;
5297;SDS011;14738;42.668;23.250;2024-02-26T02:46:14;19.13;;;15.97;;
5297;SDS011;14738;42.668;23.250;2024-02-26T02:48:41;20.03;;;16.60;;
5297;SDS011;14738;42.668;23.250;2024-02-26T02:51:12;21.20;;;15.77;;
5297;SDS011;14738;42.668;23.250;2024-02-26T02:53:37;20.90;;;15.43;;
5297;SDS011;14738;42.668;23.250;2024-02-26T02:56:03;18.93;;;14.80;;
5297;SDS011;14738;42.668;23.250;2024-02-26T02:58:34;18.10;;;14.67;;
5297;SDS011;14738;42.668;23.250;2024-02-26T03:01:00;23.60;;;17.37;;
5297;SDS011;14738;42.668;23.250;2024-02-26T03:03:28;20.23;;;15.80;;
5297;SDS011;14738;42.668;23.250;2024-02-26T03:05:54;21.03;;;16.03;;
5297;SDS011;14738;42.668;23.250;2024-02-26T03:08:25;24.07;;;17.83;;
5297;SDS011;14738;42.668;23.250;2024-02-26T03:10:51;21.80;;;17.20;;
5297;SDS011;14738;42.668;23.250;2024-02-26T03:13:19;25.10;;;16.97;;
5297;SDS011;14738;42.668;23.250;2024-02-26T03:15:45;25.40;;;18.20;;
5297;SDS011;14738;42.668;23.250;2024-02-26T03:18:16;23.03;;;18.00;;
5297;SDS011;14738;42.668;23.250;2024-02-26T03:20:48;22.80;;;16.83;;
5297;SDS011;14738;42.668;23.250;2024-02-26T03:23:20;20.17;;;15.60;;
5297;SDS011;14738;42.668;23.250;2024-02-26T03:25:46;22.00;;;16.20;;
5297;SDS011;14738;42.668;23.250;2024-02-26T03:28:21;21.33;;;16.60;;
5297;SDS011;14738;42.668;23.250;2024-02-26T03:31:06;24.10;;;16.20;;
5297;SDS011;14738;42.668;23.250;2024-02-26T03:33:46;23.00;;;17.80;;
5297;SDS011;14738;42.668;23.250;2024-02-26T03:36:19;20.00;;;17.50;;
5297;SDS011;14738;42.668;23.250;2024-02-26T03:38:53;23.37;;;17.57;;
5297;SDS011;14738;42.668;23.250;2024-02-26T03:41:28;24.47;;;17.70;;
5297;SDS011;14738;42.668;23.250;2024-02-26T03:43:54;24.70;;;17.20;;
5297;SDS011;14738;42.668;23.250;2024-02-26T03:46:19;21.97;;;16.60;;
5297;SDS011;14738;42.668;23.250;2024-02-26T03:48:56;21.27;;;15.63;;
5297;SDS011;14738;42.668;23.250;2024-02-26T03:51:25;22.90;;;16.63;;
5297;SDS011;14738;42.668;23.250;2024-02-26T03:53:54;24.50;;;16.27;;
5297;SDS011;14738;42.668;23.250;2024-02-26T03:56:43;70.17;;;36.20;;
5297;SDS011;14738;42.668;23.250;2024-02-26T03:59:09;49.57;;;28.90;;
5297;SDS011;14738;42.668;23.250;2024-02-26T04:01:46;43.23;;;24.47;;
5297;SDS011;14738;42.668;23.250;2024-02-26T04:04:14;38.47;;;24.23;;
5297;SDS011;14738;42.668;23.250;2024-02-26T04:06:40;33.07;;;21.33;;
5297;SDS011;14738;42.668;23.250;2024-02-26T04:09:09;31.20;;;21.20;;
5297;SDS011;14738;42.668;23.250;2024-02-26T04:11:35;25.47;;;19.00;;
5297;SDS011;14738;42.668;23.250;2024-02-26T04:14:00;27.10;;;18.77;;
5297;SDS011;14738;42.668;23.250;2024-02-26T04:16:26;32.87;;;21.27;;
5297;SDS011;14738;42.668;23.250;2024-02-26T04:18:51;28.00;;;20.13;;
5297;SDS011;14738;42.668;23.250;2024-02-26T04:21:18;30.47;;;20.17;;
5297;SDS011;14738;42.668;23.250;2024-02-26T04:23:44;26.10;;;18.60;;
5297;SDS011;14738;42.668;23.250;2024-02-26T04:26:09;23.23;;;17.10;;
5297;SDS011;14738;42.668;23.250;2024-02-26T04:28:34;23.97;;;18.20;;
5297;SDS011;14738;42.668;23.250;2024-02-26T04:31:01;22.37;;;17.90;;
5297;SDS011;14738;42.668;23.250;2024-02-26T04:33:26;24.60;;;17.50;;
5297;SDS011;14738;42.668;23.250;2024-02-26T04:35:52;22.93;;;18.40;;
5297;SDS011;14738;42.668;23.250;2024-02-26T04:38:18;19.53;;;16.37;;
5297;SDS011;14738;42.668;23.250;2024-02-26T04:40:43;20.97;;;16.83;;
5297;SDS011;14738;42.668;23.250;2024-02-26T04:43:09;23.20;;;17.00;;
5297;SDS011;14738;42.668;23.250;2024-02-26T04:45:34;27.77;;;19.20;;
5297;SDS011;14738;42.668;23.250;2024-02-26T04:48:00;24.30;;;17.27;;
5297;SDS011;14738;42.668;23.250;2024-02-26T04:50:25;22.07;;;18.20;;
5297;SDS011;14738;42.668;23.250;2024-02-26T04:52:51;25.37;;;16.20;;
5297;SDS011;14738;42.668;23.250;2024-02-26T04:55:16;21.37;;;16.10;;
5297;SDS011;14738;42.668;23.250;2024-02-26T04:57:42;18.60;;;14.67;;
5297;SDS011;14738;42.668;23.250;2024-02-26T05:00:08;19.07;;;14.80;;
5297;SDS011;14738;42.668;23.250;2024-02-26T05:02:34;17.27;;;14.40;;
5297;SDS011;14738;42.668;23.250;2024-02-26T05:05:03;22.63;;;16.90;;
5297;SDS011;14738;42.668;23.250;2024-02-26T05:07:30;33.00;;;21.10;;
5297;SDS011;14738;42.668;23.250;2024-02-26T05:09:55;38.20;;;23.80;;
5297;SDS011;14738;42.668;23.250;2024-02-26T05:12:21;50.37;;;27.80;;
5297;SDS011;14738;42.668;23.250;2024-02-26T05:14:46;38.07;;;24.07;;
5297;SDS011;14738;42.668;23.250;2024-02-26T05:17:11;41.20;;;24.83;;
5297;SDS011;14738;42.668;23.250;2024-02-26T05:19:40;33.50;;;22.20;;
5297;SDS011;14738;42.668;23.250;2024-02-26T05:22:05;31.70;;;22.37;;
5297;SDS011;14738;42.668;23.250;2024-02-26T05:24:31;33.50;;;22.57;;
5297;SDS011;14738;42.668;23.250;2024-02-26T05:26:56;34.83;;;22.63;;
5297;SDS011;14738;42.668;23.250;2024-02-26T05:29:21;40.90;;;27.37;;
5297;SDS011;14738;42.668;23.250;2024-02-26T05:31:47;44.83;;;28.37;;
5297;SDS011;14738;42.668;23.250;2024-02-26T05:34:12;46.87;;;29.80;;
5297;SDS011;14738;42.668;23.250;2024-02-26T05:36:38;49.00;;;29.60;;
5297;SDS011;14738;42.668;23.250;2024-02-26T05:39:04;41.80;;;28.83;;
5297;SDS011;14738;42.668;23.250;2024-02-26T05:41:30;47.13;;;30.23;;
5297;SDS011;14738;42.668;23.250;2024-02-26T05:43:56;45.60;;;30.17;;
5297;SDS011;14738;42.668;23.250;2024-02-26T05:46:23;37.03;;;26.57;;
5297;SDS011;14738;42.668;23.250;2024-02-26T05:48:50;35.43;;;23.73;;
5297;SDS011;14738;42.668;23.250;2024-02-26T05:51:17;39.87;;;25.53;;
5297;SDS011;14738;42.668;23.250;2024-02-26T05:53:43;38.60;;;25.37;;
5297;SDS011;14738;42.668;23.250;2024-02-26T05:56:09;38.47;;;26.93;;
5297;SDS011;14738;42.668;23.250;2024-02-26T05:58:35;60.43;;;41.80;;
5297;SDS011;14738;42.668;23.250;2024-02-26T06:01:00;43.10;;;31.00;;
5297;SDS011;14738;42.668;23.250;2024-02-26T06:03:26;37.83;;;27.80;;
5297;SDS011;14738;42.668;23.250;2024-02-26T06:05:52;39.17;;;27.90;;
5297;SDS011;14738;42.668;23.250;2024-02-26T06:08:18;40.30;;;27.83;;
5297;SDS011;14738;42.668;23.250;2024-02-26T06:10:43;40.17;;;27.90;;
5297;SDS011;14738;42.668;23.250;2024-02-26T06:13:09;36.17;;;27.87;;
5297;SDS011;14738;42.668;23.250;2024-02-26T06:15:34;40.13;;;26.83;;
5297;SDS011;14738;42.668;23.250;2024-02-26T06:18:00;38.13;;;27.47;;
5297;SDS011;14738;42.668;23.250;2024-02-26T06:20:25;40.57;;;29.60;;
5297;SDS011;14738;42.668;23.250;2024-02-26T06:22:51;36.23;;;27.33;;
5297;SDS011;14738;42.668;23.250;2024-02-26T06:25:16;38.77;;;28.03;;
5297;SDS011;14738;42.668;23.250;2024-02-26T06:27:42;40.60;;;26.70;;
5297;SDS011;14738;42.668;23.250;2024-02-26T06:30:07;40.93;;;29.10;;
5297;SDS011;14738;42.668;23.250;2024-02-26T06:32:35;36.67;;;27.90;;
5297;SDS011;14738;42.668;23.250;2024-02-26T06:35:01;38.77;;;27.83;;
5297;SDS011;14738;42.668;23.250;2024-02-26T06:37:29;40.23;;;26.57;;
5297;SDS011;14738;42.668;23.250;2024-02-26T06:39:54;32.60;;;24.40;;
5297;SDS011;14738;42.668;23.250;2024-02-26T06:42:20;35.87;;;23.63;;
5297;SDS011;14738;42.668;23.250;2024-02-26T06:44:45;38.23;;;25.67;;
5297;SDS011;14738;42.668;23.250;2024-02-26T06:47:11;46.67;;;35.63;;
5297;SDS011;14738;42.668;23.250;2024-02-26T06:49:37;32.20;;;25.17;;
5297;SDS011;14738;42.668;23.250;2024-02-26T06:52:03;37.60;;;26.87;;
5297;SDS011;14738;42.668;23.250;2024-02-26T06:54:29;36.87;;;27.77;;
5297;SDS011;14738;42.668;23.250;2024-02-26T06:56:55;35.20;;;26.17;;
5297;SDS011;14738;42.668;23.250;2024-02-26T06:59:20;37.43;;;26.17;;
5297;SDS011;14738;42.668;23.250;2024-02-26T07:01:46;39.77;;;27.70;;
5297;SDS011;14738;42.668;23.250;2024-02-26T07:04:11;32.73;;;25.50;;
5297;SDS011;14738;42.668;23.250;2024-02-26T07:06:37;34.03;;;26.27;;
5297;SDS011;14738;42.668;23.250;2024-02-26T07:09:02;32.67;;;24.60;;
5297;SDS011;14738;42.668;23.250;2024-02-26T07:11:28;37.27;;;27.27;;
5297;SDS011;14738;42.668;23.250;2024-02-26T07:13:53;42.33;;;29.30;;
5297;SDS011;14738;42.668;23.250;2024-02-26T07:16:19;41.87;;;28.17;;
5297;SDS011;14738;42.668;23.250;2024-02-26T07:18:44;39.83;;;28.67;;
5297;SDS011;14738;42.668;23.250;2024-02-26T07:21:11;40.00;;;28.50;;
5297;SDS011;14738;42.668;23.250;2024-02-26T07:23:37;38.03;;;27.67;;
5297;SDS011;14738;42.668;23.250;2024-02-26T07:26:02;38.20;;;27.67;;
5297;SDS011;14738;42.668;23.250;2024-02-26T07:28:28;41.60;;;29.03;;
5297;SDS011;14738;42.668;23.250;2024-02-26T07:30:54;40.50;;;27.60;;
5297;SDS011;14738;42.668;23.250;2024-02-26T07:33:19;35.90;;;27.70;;
5297;SDS011;14738;42.668;23.250;2024-02-26T07:35:45;36.90;;;27.60;;
5297;SDS011;14738;42.668;23.250;2024-02-26T07:38:10;35.47;;;28.37;;
5297;SDS011;14738;42.668;23.250;2024-02-26T07:40:36;34.93;;;25.77;;
5297;SDS011;14738;42.668;23.250;2024-02-26T07:43:01;34.03;;;26.60;;
5297;SDS011;14738;42.668;23.250;2024-02-26T07:45:27;35.13;;;27.20;;
5297;SDS011;14738;42.668;23.250;2024-02-26T07:47:52;41.30;;;28.10;;
5297;SDS011;14738;42.668;23.250;2024-02-26T07:50:20;36.47;;;28.13;;
5297;SDS011;14738;42.668;23.250;2024-02-26T07:52:46;31.63;;;26.60;;
5297;SDS011;14738;42.668;23.250;2024-02-26T07:55:11;30.87;;;26.47;;
5297;SDS011;14738;42.668;23.250;2024-02-26T07:57:37;36.40;;;28.20;;
5297;SDS011;14738;42.668;23.250;2024-02-26T08:00:03;35.03;;;27.23;;
5297;SDS011;14738;42.668;23.250;2024-02-26T08:02:32;37.67;;;27.03;;
5297;SDS011;14738;42.668;23.250;2024-02-26T08:04:59;34.10;;;26.77;;
5297;SDS011;14738;42.668;23.250;2024-02-26T08:07:24;43.37;;;26.93;;
5297;SDS011;14738;42.668;23.250;2024-02-26T08:09:50;31.90;;;24.47;;
5297;SDS011;14738;42.668;23.250;2024-02-26T08:12:15;28.07;;;24.20;;
5297;SDS011;14738;42.668;23.250;2024-02-26T08:14:41;30.47;;;25.30;;
5297;SDS011;14738;42.668;23.250;2024-02-26T08:17:08;34.60;;;24.93;;
5297;SDS011;14738;42.668;23.250;2024-02-26T08:19:34;35.73;;;23.53;;
5297;SDS011;14738;42.668;23.250;2024-02-26T08:22:02;35.83;;;25.00;;
5297;SDS011;14738;42.668;23.250;2024-02-26T08:24:28;35.90;;;24.50;;
5297;SDS011;14738;42.668;23.250;2024-02-26T08:26:54;30.50;;;24.60;;
5297;SDS011;14738;42.668;23.250;2024-02-26T08:29:19;35.63;;;25.03;;
5297;SDS011;14738;42.668;23.250;2024-02-26T08:31:45;36.73;;;25.60;;
5297;SDS011;14738;42.668;23.250;2024-02-26T08:34:10;40.13;;;27.17;;
5297;SDS011;14738;42.668;23.250;2024-02-26T08:36:36;35.67;;;27.87;;
5297;SDS011;14738;42.668;23.250;2024-02-26T08:39:02;41.63;;;33.37;;
5297;SDS011;14738;42.668;23.250;2024-02-26T08:41:28;49.43;;;35.03;;
5297;SDS011;14738;42.668;23.250;2024-02-26T08:43:53;41.20;;;34.20;;
5297;SDS011;14738;42.668;23.250;2024-02-26T08:46:19;47.70;;;35.63;;
5297;SDS011;14738;42.668;23.250;2024-02-26T08:48:45;35.43;;;31.60;;
5297;SDS011;14738;42.668;23.250;2024-02-26T08:51:11;39.63;;;33.07;;
5297;SDS011;14738;42.668;23.250;2024-02-26T08:53:38;41.70;;;30.80;;
5297;SDS011;14738;42.668;23.250;2024-02-26T08:56:04;38.20;;;30.73;;
5297;SDS011;14738;42.668;23.250;2024-02-26T08:58:30;33.80;;;28.60;;
5297;SDS011;14738;42.668;23.250;2024-02-26T09:00:55;36.47;;;28.60;;
5297;SDS011;14738;42.668;23.250;2024-02-26T09:03:21;44.53;;;30.20;;
5297;SDS011;14738;42.668;23.250;2024-02-26T09:05:47;36.53;;;29.40;;
5297;SDS011;14738;42.668;23.250;2024-02-26T09:08:13;40.87;;;29.37;;
5297;SDS011;14738;42.668;23.250;2024-02-26T09:10:38;33.53;;;26.20;;
5297;SDS011;14738;42.668;23.250;2024-02-26T09:13:04;32.67;;;26.50;;
5297;SDS011;14738;42.668;23.250;2024-02-26T09:15:32;37.37;;;27.97;;
5297;SDS011;14738;42.668;23.250;2024-02-26T09:17:58;36.10;;;28.53;;
5297;SDS011;14738;42.668;23.250;2024-02-26T09:20:23;33.60;;;26.20;;
5297;SDS011;14738;42.668;23.250;2024-02-26T09:22:51;37.30;;;25.87;;
5297;SDS011;14738;42.668;23.250;2024-02-26T09:25:18;31.63;;;26.27;;
5297;SDS011;14738;42.668;23.250;2024-02-26T09:27:44;33.83;;;22.90;;
5297;SDS011;14738;42.668;23.250;2024-02-26T09:30:12;33.63;;;23.53;;
5297;SDS011;14738;42.668;23.250;2024-02-26T09:32:39;32.67;;;24.77;;
5297;SDS011;14738;42.668;23.250;2024-02-26T09:35:05;32.87;;;26.70;;
5297;SDS011;14738;42.668;23.250;2024-02-26T09:37:31;30.07;;;24.90;;
5297;SDS011;14738;42.668;23.250;2024-02-26T09:39:58;33.07;;;25.00;;
5297;SDS011;14738;42.668;23.250;2024-02-26T09:42:25;33.83;;;23.83;;
5297;SDS011;14738;42.668;23.250;2024-02-26T09:44:51;37.47;;;23.87;;
5297;SDS011;14738;42.668;23.250;2024-02-26T09:47:23;25.40;;;22.53;;
5297;SDS011;14738;42.668;23.250;2024-02-26T09:49:52;30.10;;;23.80;;
5297;SDS011;14738;42.668;23.250;2024-02-26T09:52:18;37.13;;;23.97;;
5297;SDS011;14738;42.668;23.250;2024-02-26T09:54:48;33.17;;;23.23;;
5297;SDS011;14738;42.668;23.250;2024-02-26T09:57:13;27.80;;;20.97;;
5297;SDS011;14738;42.668;23.250;2024-02-26T09:59:42;33.80;;;21.00;;
5297;SDS011;14738;42.668;23.250;2024-02-26T10:02:12;24.20;;;19.40;;
5297;SDS011;14738;42.668;23.250;2024-02-26T10:04:42;26.43;;;19.97;;
5297;SDS011;14738;42.668;23.250;2024-02-26T10:07:11;11.20;;;9.97;;
5297;SDS011;14738;42.668;23.250;2024-02-26T10:09:38;18.33;;;10.67;;
5297;SDS011;14738;42.668;23.250;2024-02-26T10:12:04;8.93;;;8.00;;
5297;SDS011;14738;42.668;23.250;2024-02-26T10:14:32;7.80;;;7.10;;
5297;SDS011;14738;42.668;23.250;2024-02-26T10:16:58;11.03;;;7.63;;
5297;SDS011;14738;42.668;23.250;2024-02-26T10:19:27;8.23;;;7.43;;
5297;SDS011;14738;42.668;23.250;2024-02-26T10:21:57;8.40;;;7.60;;
5297;SDS011;14738;42.668;23.250;2024-02-26T10:24:24;9.13;;;8.23;;
5297;SDS011;14738;42.668;23.250;2024-02-26T10:26:51;9.50;;;7.07;;
5297;SDS011;14738;42.668;23.250;2024-02-26T10:29:21;7.90;;;7.20;;
5297;SDS011;14738;42.668;23.250;2024-02-26T10:31:47;7.90;;;7.20;;
5297;SDS011;14738;42.668;23.250;2024-02-26T10:34:16;7.87;;;7.17;;
5297;SDS011;14738;42.668;23.250;2024-02-26T10:36:41;9.07;;;6.60;;
5297;SDS011;14738;42.668;23.250;2024-02-26T10:39:07;8.30;;;7.50;;
5297;SDS011;14738;42.668;23.250;2024-02-26T10:41:33;8.80;;;7.10;;
5297;SDS011;14738;42.668;23.250;2024-02-26T10:43:59;11.50;;;7.43;;
5297;SDS011;14738;42.668;23.250;2024-02-26T10:46:25;7.40;;;6.70;;
5297;SDS011;14738;42.668;23.250;2024-02-26T10:48:52;8.80;;;7.00;;
5297;SDS011;14738;42.668;23.250;2024-02-26T10:51:23;11.63;;;7.47;;
5297;SDS011;14738;42.668;23.250;2024-02-26T10:53:54;6.87;;;5.83;;
5297;SDS011;14738;42.668;23.250;2024-02-26T10:56:24;6.63;;;6.03;;
5297;SDS011;14738;42.668;23.250;2024-02-26T10:58:52;7.10;;;6.60;;
5297;SDS011;14738;42.668;23.250;2024-02-26T11:01:18;7.50;;;5.73;;
5297;SDS011;14738;42.668;23.250;2024-02-26T11:03:45;7.43;;;6.40;;
5297;SDS011;14738;42.668;23.250;2024-02-26T11:06:11;6.57;;;6.07;;
5297;SDS011;14738;42.668;23.250;2024-02-26T11:08:37;7.70;;;6.90;;
5297;SDS011;14738;42.668;23.250;2024-02-26T11:11:03;8.10;;;7.40;;
5297;SDS011;14738;42.668;23.250;2024-02-26T11:13:30;8.33;;;7.27;;
5297;SDS011;14738;42.668;23.250;2024-02-26T11:15:56;8.07;;;7.03;;
5297;SDS011;14738;42.668;23.250;2024-02-26T11:18:23;11.40;;;7.67;;
5297;SDS011;14738;42.668;23.250;2024-02-26T11:20:50;11.43;;;6.70;;
5297;SDS011;14738;42.668;23.250;2024-02-26T11:23:19;9.23;;;6.93;;
5297;SDS011;14738;42.668;23.250;2024-02-26T11:25:45;9.23;;;7.00;;
5297;SDS011;14738;42.668;23.250;2024-02-26T11:28:13;9.63;;;7.13;;
5297;SDS011;14738;42.668;23.250;2024-02-26T11:30:44;10.70;;;7.63;;
5297;SDS011;14738;42.668;23.250;2024-02-26T11:33:13;12.80;;;9.10;;
5297;SDS011;14738;42.668;23.250;2024-02-26T11:35:40;8.47;;;7.60;;
5297;SDS011;14738;42.668;23.250;2024-02-26T11:38:06;10.97;;;8.17;;
5297;SDS011;14738;42.668;23.250;2024-02-26T11:40:33;21.13;;;7.00;;
5297;SDS011;14738;42.668;23.250;2024-02-26T11:43:04;7.73;;;6.93;;
5297;SDS011;14738;42.668;23.250;2024-02-26T11:48:10;8.10;;;7.30;;
5297;SDS011;14738;42.668;23.250;2024-02-26T11:50:45;7.57;;;6.97;;
5297;SDS011;14738;42.668;23.250;2024-02-26T11:55:48;8.90;;;7.77;;
5297;SDS011;14738;42.668;23.250;2024-02-26T11:58:34;7.70;;;6.47;;
5297;SDS011;14738;42.668;23.250;2024-02-26T12:00:59;7.27;;;6.70;;
5297;SDS011;14738;42.668;23.250;2024-02-26T12:03:27;10.37;;;6.90;;
5297;SDS011;14738;42.668;23.250;2024-02-26T12:05:53;7.23;;;6.50;;
5297;SDS011;14738;42.668;23.250;2024-02-26T12:08:19;7.17;;;6.47;;
5297;SDS011;14738;42.668;23.250;2024-02-26T12:10:47;6.97;;;6.33;;
5297;SDS011;14738;42.668;23.250;2024-02-26T12:13:17;9.80;;;6.80;;
5297;SDS011;14738;42.668;23.250;2024-02-26T12:15:45;9.10;;;5.40;;
5297;SDS011;14738;42.668;23.250;2024-02-26T12:18:20;6.70;;;6.00;;
5297;SDS011;14738;42.668;23.250;2024-02-26T12:20:57;7.90;;;6.13;;
5297;SDS011;14738;42.668;23.250;2024-02-26T12:23:26;8.80;;;6.53;;
5297;SDS011;14738;42.668;23.250;2024-02-26T12:25:53;7.87;;;5.40;;
5297;SDS011;14738;42.668;23.250;2024-02-26T12:28:19;6.40;;;5.90;;
5297;SDS011;14738;42.668;23.250;2024-02-26T12:30:44;6.80;;;6.20;;
5297;SDS011;14738;42.668;23.250;2024-02-26T12:33:11;6.57;;;5.97;;
5297;SDS011;14738;42.668;23.250;2024-02-26T12:35:36;7.30;;;6.70;;
5297;SDS011;14738;42.668;23.250;2024-02-26T12:38:02;6.70;;;6.10;;
5297;SDS011;14738;42.668;23.250;2024-02-26T12:40:29;13.67;;;6.37;;
5297;SDS011;14738;42.668;23.250;2024-02-26T12:42:55;9.07;;;5.83;;
5297;SDS011;14738;42.668;23.250;2024-02-26T12:45:20;7.70;;;6.90;;
5297;SDS011;14738;42.668;23.250;2024-02-26T12:47:46;7.00;;;6.00;;
5297;SDS011;14738;42.668;23.250;2024-02-26T12:50:12;10.77;;;6.30;;
5297;SDS011;14738;42.668;23.250;2024-02-26T12:52:43;7.40;;;6.43;;
5297;SDS011;14738;42.668;23.250;2024-02-26T12:55:10;10.50;;;6.53;;
5297;SDS011;14738;42.668;23.250;2024-02-26T12:57:39;12.70;;;6.40;;
5297;SDS011;14738;42.668;23.250;2024-02-26T13:00:08;9.93;;;7.73;;
5297;SDS011;14738;42.668;23.250;2024-02-26T13:02:37;7.93;;;5.93;;
5297;SDS011;14738;42.668;23.250;2024-02-26T13:05:04;8.60;;;5.90;;
5297;SDS011;14738;42.668;23.250;2024-02-26T13:07:32;6.80;;;5.63;;
5297;SDS011;14738;42.668;23.250;2024-02-26T13:09:58;6.07;;;5.47;;
5297;SDS011;14738;42.668;23.250;2024-02-26T13:12:24;8.40;;;5.90;;
5297;SDS011;14738;42.668;23.250;2024-02-26T13:15:00;6.70;;;5.87;;
5297;SDS011;14738;42.668;23.250;2024-02-26T13:17:26;16.40;;;11.40;;
5297;SDS011;14738;42.668;23.250;2024-02-26T13:19:53;6.30;;;5.70;;
5297;SDS011;14738;42.668;23.250;2024-02-26T13:22:22;6.30;;;5.80;;
5297;SDS011;14738;42.668;23.250;2024-02-26T13:25:00;6.53;;;5.93;;
5297;SDS011;14738;42.668;23.250;2024-02-26T13:27:28;9.27;;;5.70;;
5297;SDS011;14738;42.668;23.250;2024-02-26T13:32:32;5.70;;;5.20;;
5297;SDS011;14738;42.668;23.250;2024-02-26T13:35:08;7.90;;;5.60;;
5297;SDS011;14738;42.668;23.250;2024-02-26T13:37:37;6.93;;;4.90;;
5297;SDS011;14738;42.668;23.250;2024-02-26T13:40:09;5.30;;;4.83;;
5297;SDS011;14738;42.668;23.250;2024-02-26T13:42:35;6.17;;;5.57;;
5297;SDS011;14738;42.668;23.250;2024-02-26T13:45:01;7.70;;;5.60;;
5297;SDS011;14738;42.668;23.250;2024-02-26T13:47:27;5.37;;;4.93;;
5297;SDS011;14738;42.668;23.250;2024-02-26T13:49:53;6.10;;;5.50;;
5297;SDS011;14738;42.668;23.250;2024-02-26T13:52:18;6.73;;;4.87;;
5297;SDS011;14738;42.668;23.250;2024-02-26T13:54:45;5.70;;;5.20;;
5297;SDS011;14738;42.668;23.250;2024-02-26T13:57:11;6.57;;;6.00;;
5297;SDS011;14738;42.668;23.250;2024-02-26T13:59:37;5.57;;;5.10;;
5297;SDS011;14738;42.668;23.250;2024-02-26T14:02:02;5.20;;;4.70;;
5297;SDS011;14738;42.668;23.250;2024-02-26T14:04:28;10.83;;;5.70;;
5297;SDS011;14738;42.668;23.250;2024-02-26T14:06:54;6.37;;;5.20;;
5297;SDS011;14738;42.668;23.250;2024-02-26T14:09:19;7.70;;;4.97;;
5297;SDS011;14738;42.668;23.250;2024-02-26T14:11:45;5.60;;;5.20;;
5297;SDS011;14738;42.668;23.250;2024-02-26T14:14:11;5.53;;;5.13;;
5297;SDS011;14738;42.668;23.250;2024-02-26T14:16:36;7.00;;;5.13;;
5297;SDS011;14738;42.668;23.250;2024-02-26T14:19:02;6.27;;;5.77;;
5297;SDS011;14738;42.668;23.250;2024-02-26T14:21:28;5.33;;;4.80;;
5297;SDS011;14738;42.668;23.250;2024-02-26T14:23:54;6.47;;;5.77;;
5297;SDS011;14738;42.668;23.250;2024-02-26T14:26:20;5.73;;;4.80;;
5297;SDS011;14738;42.668;23.250;2024-02-26T14:28:47;5.30;;;4.90;;
5297;SDS011;14738;42.668;23.250;2024-02-26T14:31:12;4.50;;;4.20;;
5297;SDS011;14738;42.668;23.250;2024-02-26T14:33:38;7.50;;;5.27;;
5297;SDS011;14738;42.668;23.250;2024-02-26T14:36:06;6.00;;;5.40;;